createdAt,value
2019-03-13T00:00:55.183Z,1.80
2019-03-13T00:01:55.140Z,2.40
2019-03-13T00:02:55.096Z,2.40
2019-03-13T00:03:55.052Z,3.40
2019-03-13T00:04:55.009Z,2.10
2019-03-13T00:05:54.971Z,3.80
2019-03-13T00:06:54.927Z,2.00
2019-03-13T00:07:54.883Z,4.00
2019-03-13T00:08:54.844Z,3.30
2019-03-13T00:09:54.799Z,2.20
2019-03-13T00:10:54.759Z,3.60
2019-03-13T00:11:54.714Z,2.50
2019-03-13T00:12:54.672Z,3.10
2019-03-13T00:13:54.632Z,4.10
2019-03-13T00:14:54.589Z,4.00
2019-03-13T00:15:54.547Z,2.00
2019-03-13T00:16:54.503Z,2.80
2019-03-13T00:17:54.459Z,2.80
2019-03-13T00:18:54.413Z,2.30
2019-03-13T00:19:54.376Z,1.90
2019-03-13T00:20:54.333Z,2.10
2019-03-13T00:21:54.288Z,1.90
2019-03-13T00:22:54.244Z,2.60
2019-03-13T00:23:54.201Z,2.40
2019-03-13T00:24:56.201Z,2.50
2019-03-13T00:25:54.120Z,2.30
2019-03-13T00:26:54.079Z,2.20
2019-03-13T00:27:54.037Z,4.60
2019-03-13T00:28:53.994Z,3.50
2019-03-13T00:29:53.949Z,2.80
2019-03-13T00:30:53.904Z,4.50
2019-03-13T00:31:53.863Z,3.80
2019-03-13T00:32:53.821Z,3.00
2019-03-13T00:33:53.780Z,4.90
2019-03-13T00:34:53.739Z,3.10
2019-03-13T00:35:53.693Z,3.40
2019-03-13T00:36:53.650Z,4.10
2019-03-13T00:37:53.616Z,3.60
2019-03-13T00:38:53.573Z,3.80
2019-03-13T00:39:53.527Z,4.10
2019-03-13T00:40:53.488Z,4.30
2019-03-13T00:41:53.438Z,5.70
2019-03-13T00:42:53.395Z,3.20
2019-03-13T00:43:53.351Z,3.20
2019-03-13T00:44:53.311Z,5.70
2019-03-13T00:45:53.271Z,4.00
2019-03-13T00:46:53.230Z,5.60
2019-03-13T00:47:53.187Z,4.50
2019-03-13T00:48:53.142Z,4.90
2019-03-13T00:49:53.099Z,3.80
2019-03-13T00:50:53.054Z,2.80
2019-03-13T00:51:53.018Z,5.90
2019-03-13T00:52:52.973Z,4.30
2019-03-13T00:53:52.930Z,5.70
2019-03-13T00:54:52.884Z,7.20
2019-03-13T00:55:52.842Z,5.20
2019-03-13T00:56:52.804Z,4.00
2019-03-13T00:57:52.762Z,4.40
2019-03-13T00:58:52.720Z,3.00
2019-03-13T00:59:52.678Z,5.10
2019-03-13T01:00:52.642Z,5.50
2019-03-13T01:01:52.595Z,5.00
2019-03-13T01:02:52.544Z,5.70
2019-03-13T01:03:52.502Z,6.60
2019-03-13T01:04:52.462Z,6.00
2019-03-13T01:05:52.421Z,3.70
2019-03-13T01:06:52.382Z,5.10
2019-03-13T01:07:52.331Z,6.80
2019-03-13T01:08:52.292Z,6.80
2019-03-13T01:09:52.255Z,4.40
2019-03-13T01:10:52.213Z,4.60
2019-03-13T01:11:52.168Z,5.70
2019-03-13T01:12:52.124Z,4.30
2019-03-13T01:13:52.085Z,6.40
2019-03-13T01:14:52.035Z,5.50
2019-03-13T01:15:51.994Z,5.90
2019-03-13T01:16:51.952Z,7.90
2019-03-13T01:17:51.912Z,6.90
2019-03-13T01:18:51.871Z,6.10
2019-03-13T01:19:51.829Z,4.90
2019-03-13T01:20:51.790Z,7.10
2019-03-13T01:21:51.743Z,7.20
2019-03-13T01:22:51.696Z,7.00
2019-03-13T01:23:51.659Z,6.80
2019-03-13T01:24:51.616Z,8.70
2019-03-13T01:25:51.575Z,4.90
2019-03-13T01:26:51.536Z,5.90
2019-03-13T01:27:51.486Z,5.00
2019-03-13T01:28:51.443Z,6.20
2019-03-13T01:29:51.412Z,6.70
2019-03-13T01:30:51.366Z,6.10
2019-03-13T01:31:51.320Z,6.30
2019-03-13T01:32:51.276Z,6.70
2019-03-13T01:33:51.240Z,7.50
2019-03-13T01:34:51.186Z,5.20
2019-03-13T01:35:51.146Z,4.20
2019-03-13T01:36:51.112Z,3.20
2019-03-13T01:37:51.064Z,7.90
2019-03-13T01:38:51.022Z,4.80
2019-03-13T01:39:50.976Z,6.80
2019-03-13T01:40:50.934Z,7.60
2019-03-13T01:41:50.898Z,7.50
2019-03-13T01:42:50.853Z,4.20
2019-03-13T01:43:50.811Z,6.10
2019-03-13T01:44:50.784Z,6.50
2019-03-13T01:45:50.725Z,5.30
2019-03-13T01:46:50.677Z,5.60
2019-03-13T01:47:50.639Z,3.90
2019-03-13T01:48:50.596Z,10.50
2019-03-13T01:49:50.555Z,8.30
2019-03-13T01:50:50.516Z,6.00
2019-03-13T01:51:50.472Z,6.60
2019-03-13T01:52:50.428Z,5.20
2019-03-13T01:53:50.383Z,4.20
2019-03-13T01:54:50.349Z,5.40
2019-03-13T01:55:50.303Z,6.60
2019-03-13T01:56:50.258Z,5.90
2019-03-13T01:57:50.215Z,4.60
2019-03-13T01:58:50.170Z,3.60
2019-03-13T01:59:50.130Z,6.10
2019-03-13T02:00:50.094Z,7.10
2019-03-13T02:01:50.046Z,4.80
2019-03-13T02:02:50.006Z,3.70
2019-03-13T02:03:49.966Z,7.10
2019-03-13T02:04:49.920Z,7.80
2019-03-13T02:05:49.881Z,8.30
2019-03-13T02:06:49.833Z,5.80
2019-03-13T02:07:49.787Z,4.20
2019-03-13T02:08:49.749Z,6.60
2019-03-13T02:09:49.713Z,5.30
2019-03-13T02:10:49.667Z,5.50
2019-03-13T02:11:49.618Z,6.00
2019-03-13T02:12:49.582Z,4.00
2019-03-13T02:13:49.539Z,4.10
2019-03-13T02:14:49.500Z,5.10
2019-03-13T02:15:49.463Z,3.80
2019-03-13T02:16:49.410Z,8.70
2019-03-13T02:17:49.367Z,8.80
2019-03-13T02:18:49.322Z,5.70
2019-03-13T02:19:49.956Z,5.60
2019-03-13T02:20:49.240Z,9.00
2019-03-13T02:21:49.202Z,7.10
2019-03-13T02:22:49.164Z,6.20
2019-03-13T02:23:49.123Z,10.00
2019-03-13T02:24:49.074Z,5.20
2019-03-13T02:25:49.036Z,5.60
2019-03-13T02:26:48.988Z,7.00
2019-03-13T02:27:48.949Z,7.20
2019-03-13T02:28:48.906Z,5.90
2019-03-13T02:29:48.861Z,7.50
2019-03-13T02:30:48.825Z,6.50
2019-03-13T02:31:48.782Z,5.00
2019-03-13T02:32:48.734Z,7.40
2019-03-13T02:33:48.701Z,5.30
2019-03-13T02:34:48.655Z,6.50
2019-03-13T02:35:48.610Z,9.50
2019-03-13T02:36:48.574Z,7.50
2019-03-13T02:37:48.522Z,9.90
2019-03-13T02:38:48.481Z,6.50
2019-03-13T02:39:48.437Z,7.80
2019-03-13T02:40:48.401Z,4.40
2019-03-13T02:41:48.362Z,8.50
2019-03-13T02:42:48.317Z,7.30
2019-03-13T02:43:48.269Z,7.70
2019-03-13T02:44:48.227Z,8.40
2019-03-13T02:45:48.195Z,5.90
2019-03-13T02:46:48.253Z,6.40
2019-03-13T02:47:48.103Z,8.50
2019-03-13T02:48:48.060Z,7.00
2019-03-13T02:49:48.031Z,8.20
2019-03-13T02:50:56.635Z,8.80
2019-03-13T02:52:52.401Z,7.00
2019-03-13T02:53:52.303Z,6.20
2019-03-13T02:54:52.266Z,5.90
2019-03-13T02:55:52.227Z,8.70
2019-03-13T02:56:52.182Z,8.00
2019-03-13T02:57:52.137Z,9.20
2019-03-13T02:58:52.095Z,7.30
2019-03-13T02:59:52.051Z,6.20
2019-03-13T03:00:52.025Z,9.80
2019-03-13T03:01:51.967Z,8.30
2019-03-13T03:02:51.923Z,5.60
2019-03-13T03:03:51.881Z,7.60
2019-03-13T03:04:51.842Z,6.20
2019-03-13T03:05:51.797Z,8.60
2019-03-13T03:06:51.755Z,5.40
2019-03-13T03:07:51.718Z,9.10
2019-03-13T03:08:51.678Z,6.30
2019-03-13T03:09:51.632Z,8.50
2019-03-13T03:10:51.587Z,11.70
2019-03-13T03:11:51.546Z,8.50
2019-03-13T03:12:51.502Z,7.10
2019-03-13T03:13:51.460Z,7.90
2019-03-13T03:14:51.419Z,7.90
2019-03-13T03:15:51.378Z,7.20
2019-03-13T03:16:51.337Z,7.30
2019-03-13T03:17:51.291Z,8.10
2019-03-13T03:18:51.255Z,9.30
2019-03-13T03:19:51.216Z,8.40
2019-03-13T03:20:51.174Z,9.00
2019-03-13T03:21:51.126Z,7.30
2019-03-13T03:22:51.083Z,8.20
2019-03-13T03:23:51.037Z,7.60
2019-03-13T03:24:50.993Z,7.90
2019-03-13T03:25:50.955Z,7.90
2019-03-13T03:26:50.922Z,8.70
2019-03-13T03:27:50.872Z,8.30
2019-03-13T03:28:50.830Z,6.80
2019-03-13T03:29:50.794Z,9.50
2019-03-13T03:44:14.642Z,4.40
2019-03-13T03:45:14.569Z,7.10
2019-03-13T03:46:14.525Z,6.90
2019-03-13T03:47:14.480Z,7.20
2019-03-13T03:48:14.446Z,8.90
2019-03-13T03:49:14.407Z,7.80
2019-03-13T03:50:14.343Z,8.80
2019-03-13T03:51:14.298Z,7.20
2019-03-13T03:52:14.337Z,8.10
2019-03-13T03:53:14.211Z,9.70
2019-03-13T03:54:14.179Z,8.30
2019-03-13T03:55:14.120Z,7.40
2019-03-13T03:56:14.076Z,9.00
2019-03-13T03:57:14.193Z,9.10
2019-03-13T03:58:13.994Z,10.20
2019-03-13T03:59:13.957Z,5.30
2019-03-13T04:00:13.909Z,8.00
2019-03-13T04:01:13.899Z,8.60
2019-03-13T04:02:13.819Z,7.60
2019-03-13T04:03:13.778Z,8.30
2019-03-13T04:04:13.737Z,7.30
2019-03-13T04:05:13.689Z,5.20
2019-03-13T04:06:13.728Z,7.70
2019-03-13T04:07:13.612Z,8.60
2019-03-13T04:08:13.565Z,10.30
2019-03-13T04:09:13.519Z,9.70
2019-03-13T04:10:13.486Z,10.00
2019-03-13T04:11:13.437Z,8.70
2019-03-13T04:12:13.395Z,7.90
2019-03-13T04:13:13.354Z,7.20
2019-03-13T04:14:13.313Z,9.50
2019-03-13T04:15:13.273Z,10.70
2019-03-13T04:16:13.228Z,9.30
2019-03-13T04:17:13.184Z,9.20
2019-03-13T04:18:13.143Z,8.40
2019-03-13T04:19:13.102Z,9.00
2019-03-13T04:20:13.054Z,8.70
2019-03-13T04:21:13.026Z,7.70
2019-03-13T04:22:12.966Z,8.70
2019-03-13T04:23:12.926Z,7.40
2019-03-13T04:24:12.893Z,10.40
2019-03-13T04:25:12.851Z,6.70
2019-03-13T04:26:13.228Z,9.80
2019-03-13T04:27:12.755Z,8.20
2019-03-13T04:28:12.720Z,5.00
2019-03-13T04:29:12.667Z,9.30
2019-03-13T04:30:12.654Z,7.10
2019-03-13T04:31:12.610Z,7.80
2019-03-13T04:32:12.554Z,9.40
2019-03-13T04:33:12.505Z,8.20
2019-03-13T04:34:12.456Z,6.40
2019-03-13T04:35:12.416Z,4.60
2019-03-13T04:36:12.374Z,8.00
2019-03-13T04:37:12.330Z,10.50
2019-03-13T04:38:12.293Z,7.50
2019-03-13T04:39:12.250Z,7.00
2019-03-13T04:40:12.208Z,8.70
2019-03-13T04:41:12.159Z,8.60
2019-03-13T04:42:12.123Z,5.70
2019-03-13T04:43:12.079Z,6.40
2019-03-13T04:44:12.037Z,8.20
2019-03-13T04:45:11.998Z,7.80
2019-03-13T04:46:11.947Z,8.30
2019-03-13T04:47:11.907Z,10.40
2019-03-13T04:48:11.866Z,7.00
2019-03-13T04:49:11.819Z,7.00
2019-03-13T04:50:11.783Z,8.80
2019-03-13T04:51:11.739Z,8.90
2019-03-13T04:52:11.699Z,8.00
2019-03-13T04:53:11.656Z,7.30
2019-03-13T04:54:11.610Z,6.20
2019-03-13T04:55:11.567Z,9.20
2019-03-13T04:56:11.530Z,8.70
2019-03-13T04:57:11.487Z,5.00
2019-03-13T04:58:11.439Z,6.80
2019-03-13T04:59:11.398Z,10.60
2019-03-13T05:00:11.358Z,8.00
2019-03-13T05:01:11.316Z,11.90
2019-03-13T05:02:11.279Z,9.10
2019-03-13T05:03:11.232Z,8.80
2019-03-13T05:04:11.188Z,8.70
2019-03-13T05:05:11.147Z,8.90
2019-03-13T05:06:11.099Z,10.60
2019-03-13T05:07:11.058Z,7.20
2019-03-13T05:08:11.016Z,10.40
2019-03-13T05:09:10.972Z,9.60
2019-03-13T05:10:10.944Z,4.60
2019-03-13T05:11:10.893Z,7.70
2019-03-13T05:12:10.847Z,11.00
2019-03-13T05:13:10.924Z,8.90
2019-03-13T05:14:10.766Z,10.20
2019-03-13T05:15:10.722Z,11.50
2019-03-13T05:16:10.681Z,8.40
2019-03-13T05:17:10.641Z,12.20
2019-03-13T05:18:10.591Z,10.60
2019-03-13T05:19:10.550Z,10.30
2019-03-13T05:20:13.640Z,8.30
2019-03-13T05:21:10.465Z,8.80
2019-03-13T05:22:10.430Z,10.10
2019-03-13T05:23:10.382Z,12.70
2019-03-13T05:24:10.340Z,11.20
2019-03-13T05:25:10.301Z,10.40
2019-03-13T05:26:10.254Z,10.80
2019-03-13T05:27:10.214Z,9.30
2019-03-13T05:28:10.170Z,8.00
2019-03-13T05:29:10.147Z,11.50
2019-03-13T05:30:10.086Z,11.40
2019-03-13T05:31:10.043Z,9.90
2019-03-13T05:32:10.000Z,9.50
2019-03-13T05:33:09.956Z,13.20
2019-03-13T05:34:09.919Z,14.10
2019-03-13T05:35:09.875Z,9.20
2019-03-13T05:36:09.832Z,10.40
2019-03-13T05:37:09.792Z,10.60
2019-03-13T05:38:09.746Z,9.10
2019-03-13T05:39:09.707Z,11.60
2019-03-13T05:40:09.661Z,11.50
2019-03-13T05:41:09.620Z,12.00
2019-03-13T05:42:09.600Z,12.70
2019-03-13T05:43:09.544Z,10.10
2019-03-13T05:44:09.493Z,10.50
2019-03-13T05:45:09.470Z,8.70
2019-03-13T05:46:09.418Z,10.90
2019-03-13T05:47:09.375Z,10.20
2019-03-13T05:48:09.376Z,11.60
2019-03-13T05:49:09.286Z,12.30
2019-03-13T05:50:09.238Z,12.30
2019-03-13T05:51:09.199Z,11.60
2019-03-13T05:52:09.155Z,11.50
2019-03-13T05:53:09.110Z,11.70
2019-03-13T05:54:09.075Z,12.30
2019-03-13T05:55:09.052Z,13.10
2019-03-13T05:56:08.988Z,12.50
2019-03-13T05:57:08.947Z,9.80
2019-03-13T05:58:08.899Z,10.70
2019-03-13T05:59:08.861Z,13.60
2019-03-13T06:00:08.818Z,15.30
2019-03-13T06:01:08.781Z,12.70
2019-03-13T06:02:08.733Z,12.20
2019-03-13T06:03:08.695Z,10.90
2019-03-13T06:04:08.648Z,12.90
2019-03-13T06:05:08.607Z,11.20
2019-03-13T06:06:08.568Z,7.90
2019-03-13T06:07:08.524Z,11.10
2019-03-13T06:08:08.482Z,12.90
2019-03-13T06:09:08.441Z,9.70
2019-03-13T06:10:08.394Z,14.50
2019-03-13T06:11:08.351Z,13.00
2019-03-13T06:12:08.310Z,11.10
2019-03-13T06:13:08.354Z,9.70
2019-03-13T06:14:08.232Z,10.70
2019-03-13T06:15:08.191Z,10.20
2019-03-13T06:16:08.143Z,12.30
2019-03-13T06:17:08.098Z,9.20
2019-03-13T06:18:09.804Z,9.40
2019-03-13T06:19:08.021Z,7.90
2019-03-13T06:20:10.385Z,13.00
2019-03-13T06:21:07.935Z,12.60
2019-03-13T06:22:07.890Z,9.80
2019-03-13T06:23:07.849Z,11.20
2019-03-13T06:24:07.805Z,8.60
2019-03-13T06:25:07.762Z,9.50
2019-03-13T06:26:07.725Z,11.70
2019-03-13T06:27:07.682Z,12.20
2019-03-13T06:28:07.641Z,10.40
2019-03-13T06:29:07.599Z,11.00
2019-03-13T06:30:07.552Z,9.00
2019-03-13T06:31:07.511Z,11.70
2019-03-13T06:32:07.471Z,13.80
2019-03-13T06:33:07.430Z,10.00
2019-03-13T06:34:07.383Z,10.90
2019-03-13T06:35:07.345Z,11.10
2019-03-13T06:36:07.304Z,12.60
2019-03-13T06:37:07.256Z,9.40
2019-03-13T06:38:07.220Z,11.90
2019-03-13T06:39:07.177Z,9.60
2019-03-13T06:40:07.136Z,8.20
2019-03-13T06:41:07.095Z,13.20
2019-03-13T06:42:07.048Z,10.50
2019-03-13T06:43:07.008Z,11.70
2019-03-13T06:44:06.963Z,9.40
2019-03-13T06:45:06.923Z,9.00
2019-03-13T06:46:06.886Z,11.90
2019-03-13T06:47:06.854Z,11.90
2019-03-13T06:48:06.796Z,9.40
2019-03-13T06:49:06.753Z,11.00
2019-03-13T06:50:06.716Z,11.80
2019-03-13T06:51:06.680Z,14.20
2019-03-13T06:52:06.630Z,13.10
2019-03-13T06:53:06.593Z,9.40
2019-03-13T06:54:06.543Z,10.80
2019-03-13T06:55:06.506Z,10.00
2019-03-13T06:56:06.460Z,9.70
2019-03-13T06:57:06.416Z,12.20
2019-03-13T06:58:06.386Z,11.10
2019-03-13T06:59:06.336Z,12.00
2019-03-13T07:00:06.295Z,13.80
2019-03-13T07:01:06.255Z,12.90
2019-03-13T07:02:06.209Z,11.60
2019-03-13T07:03:06.166Z,11.80
2019-03-13T07:04:06.126Z,12.10
2019-03-13T07:05:06.088Z,12.00
2019-03-13T07:06:06.039Z,9.20
2019-03-13T07:07:06.001Z,11.90
2019-03-13T07:08:05.956Z,9.80
2019-03-13T07:09:05.913Z,9.90
2019-03-13T07:10:05.876Z,9.10
2019-03-13T07:11:05.832Z,9.80
2019-03-13T07:12:05.791Z,12.50
2019-03-13T07:13:05.752Z,8.70
2019-03-13T07:14:05.709Z,14.00
2019-03-13T07:15:05.666Z,12.30
2019-03-13T07:16:05.622Z,9.50
2019-03-13T07:17:05.579Z,9.50
2019-03-13T07:18:05.542Z,13.60
2019-03-13T07:19:05.498Z,9.40
2019-03-13T07:20:05.454Z,11.00
2019-03-13T07:21:05.413Z,11.20
2019-03-13T07:22:05.375Z,11.70
2019-03-13T07:23:05.332Z,9.00
2019-03-13T07:24:05.291Z,11.70
2019-03-13T07:25:05.249Z,12.80
2019-03-13T07:26:05.201Z,12.60
2019-03-13T07:27:05.163Z,8.70
2019-03-13T07:28:05.120Z,9.30
2019-03-13T07:29:12.105Z,11.20
2019-03-13T07:30:05.042Z,10.70
2019-03-13T07:31:04.997Z,10.60
2019-03-13T07:32:04.954Z,11.80
2019-03-13T07:33:04.915Z,12.40
2019-03-13T07:34:04.869Z,10.70
2019-03-13T07:35:04.829Z,12.20
2019-03-13T07:36:04.791Z,10.90
2019-03-13T07:37:04.749Z,8.20
2019-03-13T07:38:04.700Z,11.00
2019-03-13T07:39:04.661Z,11.10
2019-03-13T07:40:04.622Z,12.40
2019-03-13T07:41:04.575Z,9.10
2019-03-13T07:42:04.542Z,13.90
2019-03-13T07:43:04.495Z,12.30
2019-03-13T07:44:04.454Z,11.80
2019-03-13T07:45:04.416Z,7.80
2019-03-13T07:46:04.366Z,11.00
2019-03-13T07:47:04.328Z,9.30
2019-03-13T07:48:04.286Z,10.60
2019-03-13T07:49:04.245Z,11.30
2019-03-13T07:50:04.206Z,8.30
2019-03-13T07:51:04.162Z,9.30
2019-03-13T07:52:04.120Z,9.10
2019-03-13T07:53:04.158Z,8.70
2019-03-13T07:54:04.041Z,11.20
2019-03-13T07:55:03.996Z,8.60
2019-03-13T07:56:03.952Z,11.10
2019-03-13T07:57:03.914Z,11.60
2019-03-13T07:58:03.867Z,7.10
2019-03-13T07:59:03.831Z,9.40
2019-03-13T08:00:03.786Z,13.70
2019-03-13T08:01:03.743Z,10.00
2019-03-13T08:02:03.706Z,9.50
2019-03-13T08:03:03.662Z,7.30
2019-03-13T08:04:05.289Z,11.00
2019-03-13T08:05:03.584Z,7.20
2019-03-13T08:06:03.533Z,14.80
2019-03-13T08:07:03.493Z,7.90
2019-03-13T08:08:03.453Z,8.60
2019-03-13T08:09:03.413Z,6.30
2019-03-13T08:10:03.366Z,7.70
2019-03-13T08:11:03.326Z,8.50
2019-03-13T08:29:52.149Z,9.30
2019-03-13T08:30:52.073Z,7.30
2019-03-13T08:31:52.048Z,7.60
2019-03-13T08:32:51.978Z,7.40
2019-03-13T08:33:51.936Z,8.90
2019-03-13T08:34:51.899Z,9.80
2019-03-13T08:35:51.856Z,10.40
2019-03-13T08:36:51.816Z,9.40
2019-03-13T08:37:51.770Z,8.80
2019-03-13T08:38:51.735Z,11.50
2019-03-13T08:39:51.690Z,8.00
2019-03-13T08:40:51.649Z,9.40
2019-03-13T08:41:51.609Z,11.20
2019-03-13T08:42:51.565Z,11.10
2019-03-13T08:43:51.522Z,9.80
2019-03-13T08:44:51.475Z,10.40
2019-03-13T08:45:51.435Z,7.80
2019-03-13T08:46:51.398Z,6.80
2019-03-13T08:47:51.356Z,6.80
2019-03-13T08:48:51.314Z,10.90
2019-03-13T08:49:51.276Z,11.30
2019-03-13T08:50:59.885Z,9.70
2019-03-13T08:53:04.865Z,7.80
2019-03-13T08:53:56.258Z,6.80
2019-03-13T08:54:55.530Z,11.60
2019-03-13T08:55:55.483Z,7.30
2019-03-13T08:56:55.444Z,8.20
2019-03-13T08:57:55.418Z,9.40
2019-03-13T08:58:55.364Z,8.20
2019-03-13T08:59:55.332Z,8.30
2019-03-13T09:00:55.282Z,9.00
2019-03-13T09:01:55.240Z,8.30
2019-03-13T09:02:55.194Z,8.00
2019-03-13T09:03:55.157Z,5.00
2019-03-13T09:04:55.114Z,8.90
2019-03-13T09:05:55.076Z,9.10
2019-03-13T09:07:03.293Z,10.00
2019-03-13T09:08:04.303Z,10.40
2019-03-13T09:09:59.915Z,7.50
2019-03-13T09:10:59.821Z,8.70
2019-03-13T09:11:59.762Z,5.90
2019-03-13T09:13:01.827Z,8.40
2019-03-13T09:16:11.325Z,10.80
2019-03-13T09:17:03.584Z,8.80
2019-03-13T09:18:03.529Z,7.60
2019-03-13T09:19:03.876Z,7.30
2019-03-13T09:20:03.445Z,6.40
2019-03-13T09:21:03.403Z,7.40
2019-03-13T09:22:03.367Z,6.70
2019-03-13T09:23:12.310Z,7.20
2019-03-13T09:25:12.493Z,11.70
2019-03-13T09:26:07.666Z,8.20
2019-03-13T09:27:07.625Z,7.20
2019-03-13T09:28:07.903Z,8.40
2019-03-13T09:29:07.547Z,9.30
2019-03-13T09:30:07.498Z,10.90
2019-03-13T09:31:07.456Z,8.60
2019-03-13T09:32:07.414Z,7.70
2019-03-13T09:33:07.403Z,8.60
2019-03-13T09:34:07.335Z,7.80
2019-03-13T09:35:07.293Z,6.40
2019-03-13T09:36:07.256Z,11.10
2019-03-13T09:37:07.207Z,13.50
2019-03-13T09:38:07.167Z,7.40
2019-03-13T09:39:07.129Z,8.10
2019-03-13T09:40:07.092Z,9.30
2019-03-13T09:41:07.042Z,13.30
2019-03-13T09:42:07.002Z,9.30
2019-03-13T09:43:06.964Z,8.50
2019-03-13T09:57:33.556Z,8.30
2019-03-13T09:58:33.470Z,6.70
2019-03-13T09:59:42.676Z,6.80
2019-03-13T10:00:33.380Z,7.50
2019-03-13T10:01:33.331Z,6.40
2019-03-13T10:02:33.289Z,7.60
2019-03-13T10:03:33.247Z,5.90
2019-03-13T10:04:33.206Z,5.90
2019-03-13T10:05:33.157Z,5.70
2019-03-13T10:06:33.115Z,5.10
2019-03-13T10:07:33.075Z,5.40
2019-03-13T10:08:33.037Z,7.40
2019-03-13T10:09:32.991Z,7.00
2019-03-13T10:10:32.947Z,7.60
2019-03-13T10:11:32.906Z,6.00
2019-03-13T10:12:32.862Z,5.90
2019-03-13T10:13:32.823Z,8.10
2019-03-13T10:14:32.779Z,6.70
2019-03-13T10:15:32.739Z,8.50
2019-03-13T10:16:32.698Z,7.20
2019-03-13T10:17:32.655Z,6.00
2019-03-13T10:18:32.623Z,7.20
2019-03-13T10:19:32.593Z,6.60
2019-03-13T10:20:32.524Z,5.70
2019-03-13T10:21:32.489Z,6.80
2019-03-13T10:22:32.445Z,6.40
2019-03-13T10:23:32.403Z,5.40
2019-03-13T10:24:32.359Z,7.70
2019-03-13T10:25:32.318Z,6.00
2019-03-13T10:26:32.281Z,6.40
2019-03-13T10:27:32.237Z,5.70
2019-03-13T10:28:32.199Z,4.90
2019-03-13T10:29:32.158Z,4.90
2019-03-13T10:30:32.114Z,7.10
2019-03-13T10:31:32.100Z,5.40
2019-03-13T10:32:32.027Z,4.30
2019-03-13T10:33:31.985Z,4.60
2019-03-13T10:34:31.949Z,5.20
2019-03-13T10:35:31.908Z,5.30
2019-03-13T10:36:31.870Z,3.10
2019-03-13T10:37:31.822Z,4.20
2019-03-13T10:38:31.781Z,4.20
2019-03-13T10:39:31.743Z,3.90
2019-03-13T10:40:31.704Z,3.10
2019-03-13T10:41:31.662Z,4.60
2019-03-13T10:42:31.619Z,3.70
2019-03-13T10:43:31.576Z,5.50
2019-03-13T10:44:31.533Z,4.70
2019-03-13T10:45:31.490Z,4.20
2019-03-13T10:46:31.453Z,3.40
2019-03-13T10:47:31.510Z,2.80
2019-03-13T10:48:31.376Z,3.00
2019-03-13T10:49:31.340Z,3.30
2019-03-13T10:50:31.296Z,3.20
2019-03-13T10:51:31.248Z,4.50
2019-03-13T10:52:31.209Z,5.70
2019-03-13T10:53:31.169Z,2.60
2019-03-13T10:54:31.128Z,3.20
2019-03-13T10:55:31.084Z,2.40
2019-03-13T10:56:31.045Z,2.00
2019-03-13T10:57:31.000Z,3.10
2019-03-13T10:58:30.967Z,1.90
2019-03-13T10:59:30.932Z,2.70
2019-03-13T11:00:30.884Z,3.40
2019-03-13T11:01:30.842Z,2.40
2019-03-13T11:02:30.800Z,2.70
2019-03-13T11:03:30.757Z,1.40
2019-03-13T11:04:30.790Z,2.30
2019-03-13T11:05:30.679Z,3.40
2019-03-13T11:06:30.636Z,3.90
2019-03-13T11:07:30.598Z,3.40
2019-03-13T11:08:30.558Z,3.20
2019-03-13T11:09:30.513Z,2.60
2019-03-13T11:10:30.471Z,4.80
2019-03-13T11:11:30.437Z,2.20
2019-03-13T11:12:30.397Z,4.80
2019-03-13T11:13:30.353Z,2.50
2019-03-13T11:14:30.313Z,4.00
2019-03-13T11:15:30.268Z,2.40
2019-03-13T11:16:30.227Z,1.90
2019-03-13T11:17:30.188Z,2.00
2019-03-13T11:18:30.144Z,5.00
2019-03-13T11:19:30.111Z,2.50
2019-03-13T11:20:30.069Z,3.60
2019-03-13T11:21:30.025Z,2.60
2019-03-13T11:22:29.988Z,3.20
2019-03-13T11:23:29.941Z,2.60
2019-03-13T11:24:29.903Z,3.30
2019-03-13T11:25:29.863Z,3.10
2019-03-13T11:26:29.823Z,3.10
2019-03-13T11:27:29.777Z,3.20
2019-03-13T11:28:29.737Z,2.30
2019-03-13T11:29:29.697Z,2.50
2019-03-13T11:30:29.653Z,2.30
2019-03-13T11:31:29.682Z,3.30
2019-03-13T11:32:29.579Z,2.50
2019-03-13T11:33:29.538Z,2.60
2019-03-13T11:34:29.497Z,4.40
2019-03-13T11:35:29.452Z,1.90
2019-03-13T11:36:29.413Z,1.50
2019-03-13T11:37:29.369Z,3.10
2019-03-13T11:38:29.328Z,3.10
2019-03-13T11:39:29.291Z,1.60
2019-03-13T11:40:29.248Z,2.00
2019-03-13T11:41:29.210Z,1.20
2019-03-13T11:42:29.165Z,2.60
2019-03-13T11:43:29.128Z,1.70
2019-03-13T11:44:29.085Z,1.50
2019-03-13T11:45:29.052Z,2.00
2019-03-13T11:46:29.011Z,1.80
2019-03-13T11:47:41.404Z,1.80
2019-03-13T11:48:28.927Z,3.00
2019-03-13T11:49:28.879Z,1.80
2019-03-13T11:50:28.838Z,2.20
2019-03-13T11:51:28.806Z,3.80
2019-03-13T11:52:28.768Z,3.20
2019-03-13T11:53:28.727Z,3.50
2019-03-13T11:54:28.737Z,5.30
2019-03-13T11:55:28.634Z,4.00
2019-03-13T11:56:28.611Z,3.00
2019-03-13T11:57:28.586Z,3.80
2019-03-13T11:58:28.536Z,2.50
2019-03-13T11:59:28.550Z,2.40
2019-03-13T12:00:28.434Z,2.00
2019-03-13T12:01:28.390Z,3.20
2019-03-13T12:02:28.361Z,1.80
2019-03-13T12:03:28.316Z,3.20
2019-03-13T12:04:28.271Z,3.50
2019-03-13T12:05:28.266Z,2.60
2019-03-13T12:06:28.192Z,4.60
2019-03-13T12:07:28.148Z,2.90
2019-03-13T12:08:28.138Z,4.70
2019-03-13T12:09:28.068Z,2.80
2019-03-13T12:10:28.024Z,3.10
2019-03-13T12:11:27.990Z,2.70
2019-03-13T12:12:27.949Z,3.90
2019-03-13T12:13:27.930Z,3.30
2019-03-13T12:14:27.861Z,2.20
2019-03-13T12:15:28.045Z,3.20
2019-03-13T12:16:27.783Z,2.00
2019-03-13T12:17:27.743Z,2.50
2019-03-13T12:18:27.705Z,2.50
2019-03-13T12:19:27.662Z,1.60
2019-03-13T12:20:27.886Z,1.80
2019-03-13T12:21:27.739Z,2.80
2019-03-13T12:22:27.550Z,2.30
2019-03-13T12:23:27.505Z,3.50
2019-03-13T12:24:27.460Z,3.10
2019-03-13T12:25:27.423Z,3.60
2019-03-13T12:26:27.379Z,1.90
2019-03-13T12:27:27.506Z,2.20
2019-03-13T12:28:27.296Z,4.00
2019-03-13T12:29:27.256Z,1.50
2019-03-13T12:30:27.229Z,1.30
2019-03-13T12:31:27.174Z,2.10
2019-03-13T12:32:27.135Z,2.60
2019-03-13T12:33:27.096Z,2.00
2019-03-13T12:34:27.055Z,2.80
2019-03-13T12:35:27.036Z,2.00
2019-03-13T12:36:26.974Z,2.40
2019-03-13T12:37:26.946Z,1.80
2019-03-13T12:38:26.896Z,2.30
2019-03-13T12:39:26.849Z,1.50
2019-03-13T12:40:26.814Z,1.90
2019-03-13T12:41:26.771Z,1.70
2019-03-13T12:42:26.728Z,1.60
2019-03-13T12:43:26.693Z,3.00
2019-03-13T12:44:26.670Z,1.80
2019-03-13T12:45:26.610Z,1.60
2019-03-13T12:46:26.570Z,1.50
2019-03-13T12:47:26.534Z,1.70
2019-03-13T12:48:26.492Z,3.30
2019-03-13T12:49:26.452Z,1.50
2019-03-13T12:50:26.412Z,3.10
2019-03-13T12:51:26.366Z,2.40
2019-03-13T12:52:26.329Z,2.00
2019-03-13T12:53:26.288Z,1.70
2019-03-13T12:54:26.247Z,2.90
2019-03-13T12:55:26.219Z,2.20
2019-03-13T12:56:26.171Z,1.40
2019-03-13T12:57:26.132Z,2.80
2019-03-13T12:58:26.091Z,2.80
2019-03-13T12:59:26.047Z,4.40
2019-03-13T13:00:26.009Z,1.60
2019-03-13T13:01:25.969Z,1.10
2019-03-13T13:02:25.931Z,2.90
2019-03-13T13:03:25.889Z,1.80
2019-03-13T13:04:25.847Z,1.30
2019-03-13T13:05:25.807Z,1.50
2019-03-13T13:06:25.763Z,1.90
2019-03-13T13:07:25.748Z,2.20
2019-03-13T13:08:25.689Z,1.50
2019-03-13T13:09:25.849Z,2.00
2019-03-13T13:10:25.627Z,2.50
2019-03-13T13:11:25.620Z,1.70
2019-03-13T13:12:25.524Z,1.60
2019-03-13T13:13:25.591Z,1.90
2019-03-13T13:14:26.153Z,1.90
2019-03-13T13:15:25.409Z,1.50
2019-03-13T13:16:25.364Z,2.30
2019-03-13T13:17:25.322Z,1.90
2019-03-13T13:18:25.279Z,1.80
2019-03-13T13:19:25.335Z,2.10
2019-03-13T13:20:25.210Z,3.00
2019-03-13T13:21:25.162Z,1.60
2019-03-13T13:22:25.126Z,3.60
2019-03-13T13:23:25.078Z,2.50
2019-03-13T13:24:25.038Z,2.60
2019-03-13T13:25:24.997Z,3.60
2019-03-13T13:26:24.955Z,2.70
2019-03-13T13:27:24.923Z,3.30
2019-03-13T13:28:24.886Z,2.50
2019-03-13T13:29:24.840Z,5.00
2019-03-13T13:30:24.801Z,3.00
2019-03-13T13:31:24.863Z,3.70
2019-03-13T13:32:24.715Z,2.20
2019-03-13T13:33:24.686Z,1.80
2019-03-13T13:34:24.643Z,3.30
2019-03-13T13:35:24.596Z,1.20
2019-03-13T13:36:26.889Z,2.90
2019-03-13T13:37:24.511Z,3.40
2019-03-13T13:38:24.470Z,2.30
2019-03-13T13:39:24.433Z,2.20
2019-03-13T13:40:24.392Z,1.40
2019-03-13T13:41:24.350Z,3.00
2019-03-13T13:42:24.315Z,2.50
2019-03-13T13:43:24.267Z,3.30
2019-03-13T13:44:24.227Z,3.20
2019-03-13T13:45:24.185Z,2.40
2019-03-13T13:46:24.144Z,1.70
2019-03-13T13:47:24.110Z,2.10
2019-03-13T13:48:24.065Z,2.70
2019-03-13T13:49:24.024Z,2.90
2019-03-13T13:50:24.022Z,2.10
2019-03-13T13:51:23.946Z,3.20
2019-03-13T13:52:23.903Z,2.40
2019-03-13T13:53:23.864Z,2.00
2019-03-13T13:54:23.827Z,1.70
2019-03-13T13:55:23.777Z,3.00
2019-03-13T13:56:23.738Z,2.50
2019-03-13T13:57:23.697Z,2.20
2019-03-13T13:58:23.654Z,2.30
2019-03-13T13:59:23.625Z,1.80
2019-03-13T14:00:23.577Z,3.30
2019-03-13T14:01:23.538Z,3.00
2019-03-13T14:02:23.503Z,2.50
2019-03-13T14:03:23.452Z,2.00
2019-03-13T14:04:23.412Z,2.70